sensor_id;sensor_type;location;lat;lon;timestamp;pressure;altitude;pressure_sealevel;temperature;humidity
69717;BME280;67420;46.144;19.666;2023-12-04T00:08:43;101123.47;;;20.86;47.35
69717;BME280;67420;46.144;19.666;2023-12-04T00:18:46;101118.31;;;20.83;47.29
69717;BME280;67420;46.144;19.666;2023-12-04T00:28:48;101117.56;;;20.81;47.76
69717;BME280;67420;46.144;19.666;2023-12-04T00:38:50;101141.06;;;20.77;47.96
69717;BME280;67420;46.144;19.666;2023-12-04T00:48:52;101138.38;;;20.77;47.47
69717;BME280;67420;46.144;19.666;2023-12-04T00:58:54;101144.06;;;20.73;47.58
69717;BME280;67420;46.144;19.666;2023-12-04T01:08:56;101140.63;;;20.71;48.12
69717;BME280;67420;46.144;19.666;2023-12-04T01:18:58;101155.84;;;20.70;47.86
69717;BME280;67420;46.144;19.666;2023-12-04T01:29:00;101148.03;;;20.67;47.86
69717;BME280;67420;46.144;19.666;2023-12-04T01:39:02;101155.50;;;20.62;47.83
69717;BME280;67420;46.144;19.666;2023-12-04T01:49:05;101151.88;;;20.63;47.98
69717;BME280;67420;46.144;19.666;2023-12-04T01:59:07;101149.41;;;20.60;48.04
69717;BME280;67420;46.144;19.666;2023-12-04T02:09:09;101143.75;;;20.52;47.71
69717;BME280;67420;46.144;19.666;2023-12-04T02:19:15;101154.97;;;20.57;47.69
69717;BME280;67420;46.144;19.666;2023-12-04T02:29:23;101162.50;;;20.52;47.73
69717;BME280;67420;46.144;19.666;2023-12-04T02:39:28;101159.91;;;20.50;48.20
69717;BME280;67420;46.144;19.666;2023-12-04T02:49:30;101168.03;;;20.49;47.82
69717;BME280;67420;46.144;19.666;2023-12-04T02:59:32;101160.44;;;20.43;47.83
69717;BME280;67420;46.144;19.666;2023-12-04T03:09:34;101179.81;;;20.46;47.76
69717;BME280;67420;46.144;19.666;2023-12-04T03:19:50;101180.78;;;20.45;47.87
69717;BME280;67420;46.144;19.666;2023-12-04T03:29:52;101170.19;;;20.44;48.17
69717;BME280;67420;46.144;19.666;2023-12-04T03:39:53;101185.28;;;20.45;47.81
69717;BME280;67420;46.144;19.666;2023-12-04T03:49:55;101176.09;;;20.49;47.83
69717;BME280;67420;46.144;19.666;2023-12-04T03:59:57;101162.69;;;20.49;47.95
69717;BME280;67420;46.144;19.666;2023-12-04T04:09:59;101169.53;;;20.53;47.70
69717;BME280;67420;46.144;19.666;2023-12-04T04:20:02;101169.31;;;20.56;47.57
69717;BME280;67420;46.144;19.666;2023-12-04T04:30:05;101165.56;;;20.58;47.31
69717;BME280;67420;46.144;19.666;2023-12-04T04:40:07;101177.91;;;20.61;47.75
69717;BME280;67420;46.144;19.666;2023-12-04T04:50:09;101180.47;;;20.62;47.87
69717;BME280;67420;46.144;19.666;2023-12-04T05:00:11;101159.81;;;20.64;47.40
69717;BME280;67420;46.144;19.666;2023-12-04T05:10:13;101159.06;;;20.62;47.27
69717;BME280;67420;46.144;19.666;2023-12-04T05:20:15;101179.00;;;20.71;47.29
69717;BME280;67420;46.144;19.666;2023-12-04T05:30:17;101189.41;;;20.76;47.45
69717;BME280;67420;46.144;19.666;2023-12-04T05:40:19;101187.88;;;20.84;47.36
69717;BME280;67420;46.144;19.666;2023-12-04T05:50:21;101192.28;;;20.85;47.28
69717;BME280;67420;46.144;19.666;2023-12-04T06:00:23;101188.53;;;20.88;47.15
69717;BME280;67420;46.144;19.666;2023-12-04T06:10:29;101183.81;;;20.91;47.05
69717;BME280;67420;46.144;19.666;2023-12-04T06:20:32;101186.94;;;20.98;47.05
69717;BME280;67420;46.144;19.666;2023-12-04T06:30:34;101195.94;;;20.97;47.22
69717;BME280;67420;46.144;19.666;2023-12-04T06:40:39;101207.19;;;21.02;47.13
69717;BME280;67420;46.144;19.666;2023-12-04T06:50:42;101208.66;;;21.06;47.11
69717;BME280;67420;46.144;19.666;2023-12-04T07:00:44;101206.63;;;21.10;47.66
69717;BME280;67420;46.144;19.666;2023-12-04T07:10:46;101203.66;;;21.02;47.73
69717;BME280;67420;46.144;19.666;2023-12-04T07:20:48;101200.22;;;21.12;48.07
69717;BME280;67420;46.144;19.666;2023-12-04T07:30:54;101206.97;;;21.18;48.20
69717;BME280;67420;46.144;19.666;2023-12-04T07:40:56;101208.41;;;21.23;48.67
69717;BME280;67420;46.144;19.666;2023-12-04T07:50:58;101215.88;;;21.31;48.92
69717;BME280;67420;46.144;19.666;2023-12-04T08:01:00;101214.91;;;21.32;48.97
69717;BME280;67420;46.144;19.666;2023-12-04T08:11:02;101228.22;;;21.33;49.33
69717;BME280;67420;46.144;19.666;2023-12-04T08:21:04;101239.56;;;21.37;49.54
69717;BME280;67420;46.144;19.666;2023-12-04T08:31:07;101242.47;;;21.47;50.79
69717;BME280;67420;46.144;19.666;2023-12-04T08:41:10;101256.22;;;21.55;51.56
69717;BME280;67420;46.144;19.666;2023-12-04T08:51:16;101260.72;;;21.54;51.38
69717;BME280;67420;46.144;19.666;2023-12-04T09:01:18;101256.31;;;21.53;50.87
69717;BME280;67420;46.144;19.666;2023-12-04T09:11:20;101266.94;;;21.55;53.39
69717;BME280;67420;46.144;19.666;2023-12-04T09:21:25;101249.31;;;21.63;52.04
69717;BME280;67420;46.144;19.666;2023-12-04T09:31:28;101230.41;;;21.65;52.16
69717;BME280;67420;46.144;19.666;2023-12-04T09:41:31;101231.28;;;21.65;52.00
69717;BME280;67420;46.144;19.666;2023-12-04T09:51:34;101206.38;;;21.63;51.24
69717;BME280;67420;46.144;19.666;2023-12-04T10:01:36;101198.84;;;21.68;51.19
69717;BME280;67420;46.144;19.666;2023-12-04T10:11:40;101178.59;;;21.64;50.73
69717;BME280;67420;46.144;19.666;2023-12-04T10:21:44;101164.09;;;21.67;50.58
69717;BME280;67420;46.144;19.666;2023-12-04T10:31:46;101168.72;;;21.65;50.47
69717;BME280;67420;46.144;19.666;2023-12-04T10:42:02;101148.84;;;21.67;50.46
69717;BME280;67420;46.144;19.666;2023-12-04T10:52:05;101110.66;;;21.64;50.19
69717;BME280;67420;46.144;19.666;2023-12-04T11:02:11;101104.31;;;21.65;50.18
69717;BME280;67420;46.144;19.666;2023-12-04T11:12:25;101093.69;;;21.63;50.21
69717;BME280;67420;46.144;19.666;2023-12-04T11:22:28;101053.56;;;21.62;49.87
69717;BME280;67420;46.144;19.666;2023-12-04T11:32:30;101058.81;;;21.63;49.65
69717;BME280;67420;46.144;19.666;2023-12-04T11:42:32;101052.81;;;21.60;49.75
69717;BME280;67420;46.144;19.666;2023-12-04T11:52:34;101058.09;;;21.61;49.57
69717;BME280;67420;46.144;19.666;2023-12-04T12:02:38;101039.41;;;21.60;49.30
69717;BME280;67420;46.144;19.666;2023-12-04T12:13:00;101028.56;;;21.61;49.42
69717;BME280;67420;46.144;19.666;2023-12-04T12:23:03;101015.28;;;21.60;49.13
69717;BME280;67420;46.144;19.666;2023-12-04T12:33:05;100996.50;;;21.60;48.95
69717;BME280;67420;46.144;19.666;2023-12-04T12:43:08;100981.47;;;21.57;49.09
69717;BME280;67420;46.144;19.666;2023-12-04T12:53:11;100975.25;;;21.57;48.64
69717;BME280;67420;46.144;19.666;2023-12-04T13:03:14;100974.28;;;21.58;48.79
69717;BME280;67420;46.144;19.666;2023-12-04T13:13:17;100947.63;;;21.56;48.32
69717;BME280;67420;46.144;19.666;2023-12-04T13:23:19;100937.13;;;21.53;48.50
69717;BME280;67420;46.144;19.666;2023-12-04T13:33:21;100924.78;;;21.51;48.39
69717;BME280;67420;46.144;19.666;2023-12-04T13:43:23;100923.09;;;21.50;48.51
69717;BME280;67420;46.144;19.666;2023-12-04T13:53:43;100914.06;;;21.51;48.10
69717;BME280;67420;46.144;19.666;2023-12-04T14:03:46;100904.53;;;21.47;48.09
69717;BME280;67420;46.144;19.666;2023-12-04T14:13:49;100894.78;;;21.46;47.93
69717;BME280;67420;46.144;19.666;2023-12-04T14:23:51;100895.88;;;21.43;48.05
69717;BME280;67420;46.144;19.666;2023-12-04T14:33:53;100880.00;;;21.40;47.74
69717;BME280;67420;46.144;19.666;2023-12-04T14:43:56;100860.50;;;21.38;48.10
69717;BME280;67420;46.144;19.666;2023-12-04T14:53:58;100843.66;;;21.36;48.14
69717;BME280;67420;46.144;19.666;2023-12-04T15:04:16;100847.25;;;21.48;48.56
69717;BME280;67420;46.144;19.666;2023-12-04T15:14:37;100863.09;;;21.51;48.40
69717;BME280;67420;46.144;19.666;2023-12-04T15:24:54;100853.69;;;21.45;47.88
69717;BME280;67420;46.144;19.666;2023-12-04T15:34:56;100843.09;;;21.44;47.82
69717;BME280;67420;46.144;19.666;2023-12-04T15:45:01;100838.69;;;21.43;47.98
69717;BME280;67420;46.144;19.666;2023-12-04T15:55:04;100809.22;;;21.54;49.17
69717;BME280;67420;46.144;19.666;2023-12-04T16:05:06;100793.59;;;21.59;49.48
69717;BME280;67420;46.144;19.666;2023-12-04T16:15:10;100794.09;;;21.64;49.27
69717;BME280;67420;46.144;19.666;2023-12-04T16:25:12;100770.81;;;21.64;48.76
69717;BME280;67420;46.144;19.666;2023-12-04T16:35:20;100728.97;;;21.62;48.35
69717;BME280;67420;46.144;19.666;2023-12-04T16:45:21;100711.56;;;21.56;48.35
69717;BME280;67420;46.144;19.666;2023-12-04T16:55:23;100713.66;;;21.53;47.69
69717;BME280;67420;46.144;19.666;2023-12-04T17:05:25;100692.44;;;21.50;48.07
69717;BME280;67420;46.144;19.666;2023-12-04T17:15:29;100696.22;;;21.47;47.93
69717;BME280;67420;46.144;19.666;2023-12-04T17:25:31;100700.97;;;21.44;47.55
69717;BME280;67420;46.144;19.666;2023-12-04T17:35:35;100708.28;;;21.42;47.57
69717;BME280;67420;46.144;19.666;2023-12-04T17:45:37;100685.47;;;21.36;47.69
69717;BME280;67420;46.144;19.666;2023-12-04T17:55:39;100672.81;;;21.38;47.85
69717;BME280;67420;46.144;19.666;2023-12-04T18:05:42;100645.38;;;21.34;47.52
69717;BME280;67420;46.144;19.666;2023-12-04T18:15:45;100661.59;;;21.33;47.77
69717;BME280;67420;46.144;19.666;2023-12-04T18:25:47;100648.56;;;21.28;47.75
69717;BME280;67420;46.144;19.666;2023-12-04T18:35:49;100658.44;;;21.28;47.95
69717;BME280;67420;46.144;19.666;2023-12-04T18:45:51;100643.31;;;21.27;48.07
69717;BME280;67420;46.144;19.666;2023-12-04T18:55:54;100639.31;;;21.21;48.08
69717;BME280;67420;46.144;19.666;2023-12-04T19:05:57;100640.88;;;21.24;48.17
69717;BME280;67420;46.144;19.666;2023-12-04T19:15:59;100640.16;;;21.22;47.75
69717;BME280;67420;46.144;19.666;2023-12-04T19:26:00;100641.00;;;21.22;47.60
69717;BME280;67420;46.144;19.666;2023-12-04T19:36:06;100641.13;;;21.21;48.57
69717;BME280;67420;46.144;19.666;2023-12-04T19:46:08;100610.88;;;21.19;48.85
69717;BME280;67420;46.144;19.666;2023-12-04T19:56:10;100612.59;;;21.20;48.76
69717;BME280;67420;46.144;19.666;2023-12-04T20:06:12;100607.09;;;21.10;48.57
69717;BME280;67420;46.144;19.666;2023-12-04T20:16:15;100602.84;;;21.19;49.57
69717;BME280;67420;46.144;19.666;2023-12-04T20:26:17;100589.97;;;21.24;51.76
69717;BME280;67420;46.144;19.666;2023-12-04T20:36:19;100573.03;;;21.23;51.64
69717;BME280;67420;46.144;19.666;2023-12-04T20:46:21;100542.56;;;21.24;51.93
69717;BME280;67420;46.144;19.666;2023-12-04T20:56:23;100507.47;;;21.27;51.46
69717;BME280;67420;46.144;19.666;2023-12-04T21:06:25;100484.16;;;21.17;51.63
69717;BME280;67420;46.144;19.666;2023-12-04T21:16:27;100498.31;;;21.30;52.00
69717;BME280;67420;46.144;19.666;2023-12-04T21:26:29;100490.28;;;21.30;51.48
69717;BME280;67420;46.144;19.666;2023-12-04T21:36:31;100469.50;;;21.32;51.51
69717;BME280;67420;46.144;19.666;2023-12-04T21:46:34;100436.06;;;21.26;50.93
69717;BME280;67420;46.144;19.666;2023-12-04T21:56:36;100384.03;;;21.18;50.45
69717;BME280;67420;46.144;19.666;2023-12-04T22:06:37;100386.09;;;21.14;50.50
69717;BME280;67420;46.144;19.666;2023-12-04T22:16:39;100371.38;;;21.09;50.32
69717;BME280;67420;46.144;19.666;2023-12-04T22:26:41;100355.56;;;21.06;50.70
69717;BME280;67420;46.144;19.666;2023-12-04T22:36:43;100351.72;;;20.98;50.70
69717;BME280;67420;46.144;19.666;2023-12-04T22:46:45;100348.19;;;20.98;50.36
69717;BME280;67420;46.144;19.666;2023-12-04T22:56:47;100337.59;;;20.96;50.39
69717;BME280;67420;46.144;19.666;2023-12-04T23:06:50;100361.69;;;20.96;50.43
69717;BME280;67420;46.144;19.666;2023-12-04T23:16:52;100356.00;;;20.90;50.51
69717;BME280;67420;46.144;19.666;2023-12-04T23:26:53;100353.91;;;20.93;50.68
69717;BME280;67420;46.144;19.666;2023-12-04T23:36:55;100338.69;;;20.94;50.22
69717;BME280;67420;46.144;19.666;2023-12-04T23:46:58;100306.66;;;20.92;50.64
69717;BME280;67420;46.144;19.666;2023-12-04T23:57:00;100291.69;;;20.90;50.40
